Cancun, ROO, Mexico
Current Conditions -  °F | °C
As of 2:43 AM on Friday 24 Oct 2014 (Local Time) from MMUN Reporting Station
Scattered Clouds Scattered Clouds  
Wind Chill: 73°   Ceiling: Unl
Heat Index: 73°   Visibility: 7mi
Dew Point: 73°   Wind: 6mph
Humidity: 100%   Direction: 320°NW
Pressure: 29.8"   Gusts: NA
Location:  21.17°N, 86.83°W
Report Text: MMUN 240743Z 32005KT 7SM FEW015 SCT250 23/23 A2980 RMK 8/508
Loading
Personal Weather Stations






























Interactive Weather Map
Tropical Storm Tracking
New forecast layout! Learn more

10-Day Weather Forecast

Advertisements
Track Severe Weather on mobile